METAR Data
IDs: Format: Raw Decoded Include TAF

Data at: 0109 UTC 25 Mar 2019

KFSW 250055Z AUTO 04007KT 7SM OVC010 09/09 A3001 RMK AO2
KFSW 250035Z AUTO 05005KT 7SM OVC010 09/09 A3001 RMK AO2
KFSW 250015Z AUTO 06004KT 5SM BR SCT007 OVC012 10/09 A3001 RMK AO2
KFSW 242355Z AUTO 08005KT 5SM BR BKN007 OVC012 10/10 A3000 RMK AO2
KFSW 242335Z AUTO 07005KT 5SM BR BKN007 OVC012 10/10 A2999 RMK AO2
KFSW 242315Z AUTO 08006KT 4SM BR OVC007 11/10 A2998 RMK AO2
KFSW 242255Z AUTO 07005KT 5SM BR BKN007 11/10 A2998 RMK AO2
KFSW 242235Z AUTO 06006KT 5SM BR SCT007 BKN095 11/10 A2997 RMK AO2
KFSW 242215Z AUTO 04007KT 5SM BR SCT007 SCT080 BKN095 11/10 A2997 RMK AO2
KFSW 242155Z AUTO 04006KT 3SM -RA SCT011 BKN080 10/10 A2997 RMK AO2
KFSW 242135Z AUTO 03004KT 3SM -RA BKN009 OVC013 10/10 A2999 RMK AO2
KFSW 242115Z AUTO 00000KT 4SM -DZ SCT006 BKN011 OVC090 10/10 A2999 RMK AO2
KFSW 242055Z AUTO 11004KT 4SM -RA BKN011 BKN017 OVC060 10/10 A2998 RMK AO2
KFSW 242035Z AUTO 09004KT 4SM RA SCT013 BKN019 OVC060 10/09 A2998 RMK AO2
KFSW 242015Z AUTO 04007KT 5SM -RA SCT012 SCT018 OVC035 11/09 A2996 RMK AO2
KFSW 241955Z AUTO 07004KT 7SM -RA SCT014 OVC033 11/09 A2999 RMK AO2
KFSW 241935Z AUTO 00000KT 10SM SCT014 OVC031 11/09 A2999 RMK AO2
KFSW 241915Z AUTO 00000KT 7SM SCT010 SCT014 OVC031 11/09 A2999 RMK AO2
KFSW 241855Z AUTO 00000KT 10SM BKN012 OVC031 11/09 A2999 RMK AO2
KFSW 241835Z AUTO 00000KT 7SM OVC012 11/09 A3000 RMK AO2
KFSW 241815Z AUTO 00000KT 10SM OVC012 11/09 A3000 RMK AO2
KFSW 241755Z AUTO 00000KT 10SM OVC010 11/09 A3001 RMK AO2
KFSW 241735Z AUTO 00000KT 10SM OVC008 11/09 A3001 RMK AO2
KFSW 241715Z AUTO 13004KT 7SM OVC008 10/09 A3001 RMK AO2
KFSW 241655Z AUTO 14005KT 7SM BKN008 OVC034 10/09 A3002 RMK AO2
KFSW 241635Z AUTO 15004KT 7SM SCT008 SCT021 OVC034 09/08 A3003 RMK AO2
KFSW 241615Z AUTO 15006KT 10SM BKN022 BKN026 OVC034 09/08 A3003 RMK AO2
KFSW 241555Z AUTO 14007KT 10SM SCT010 OVC022 08/08 A3003 RMK AO2
KFSW 241535Z AUTO 16006KT 10SM OVC022 09/08 A3004 RMK AO2
KFSW 241515Z AUTO 14006KT 7SM BKN024 OVC036 09/08 A3003 RMK AO2
KFSW 241455Z AUTO 14005KT 7SM OVC024 08/08 A3004 RMK AO2
KFSW 241435Z AUTO 13004KT 7SM OVC026 08/08 A3004 RMK AO2
KFSW 241415Z AUTO 14003KT 7SM OVC026 08/07 A3004 RMK AO2
KFSW 241355Z AUTO 15005KT 5SM -RA OVC026 08/08 A3004 RMK AO2
KFSW 241335Z AUTO 14008KT 7SM OVC026 08/07 A3004 RMK AO2
KFSW 241315Z AUTO 12005KT 7SM OVC028 08/07 A3004 RMK AO2
KFSW 241255Z AUTO 13004KT 7SM OVC030 08/08 A3005 RMK AO2
KFSW 241235Z AUTO 13004KT 7SM OVC030 08/08 A3005 RMK AO2
KFSW 241215Z AUTO 13004KT 7SM OVC034 08/08 A3005 RMK AO2
KFSW 241155Z AUTO 13005KT 7SM DZ OVC034 08/08 A3005 RMK AO2
KFSW 241135Z AUTO 12004KT 7SM BKN036 OVC048 08/08 A3005 RMK AO2
KFSW 241115Z AUTO 12006KT 7SM SCT038 BKN047 OVC055 08/08 A3005 RMK AO2
KFSW 241055Z AUTO 12007KT 7SM BKN044 OVC050 08/07 A3005 RMK AO2
KFSW 241035Z AUTO 12008KT 7SM -DZ BKN044 OVC070 08/08 A3005 RMK AO2
KFSW 241015Z AUTO 12007KT 10SM OVC048 08/07 A3006 RMK AO2
KFSW 240955Z AUTO 10005KT 5SM RA BKN050 BKN060 OVC075 08/07 A3006 RMK AO2
KFSW 240935Z AUTO 11004KT 7SM -RA BKN060 OVC070 08/07 A3006 RMK AO2
KFSW 240915Z AUTO 12005KT 10SM BKN060 OVC110 08/07 A3006 RMK AO2
KFSW 240855Z AUTO 13005KT 7SM -RA SCT050 OVC060 08/07 A3007 RMK AO2
KFSW 240835Z AUTO 14006KT 10SM -DZ SCT046 BKN050 OVC070 08/07 A3007 RMK AO2
KFSW 240815Z AUTO 15008KT 7SM -RA SCT055 BKN070 OVC085 08/07 A3008 RMK AO2
KFSW 240755Z AUTO 15007KT 10SM SCT055 BKN070 OVC080 08/07 A3009 RMK AO2
KFSW 240735Z AUTO 17008KT 7SM -RA OVC055 08/06 A3011 RMK AO2
KFSW 240715Z AUTO 17009G14KT 10SM OVC070 09/04 A3011 RMK AO2
KFSW 240655Z AUTO 16008KT 10SM SCT060 OVC070 09/04 A3011 RMK AO2
KFSW 240635Z AUTO 16008KT 10SM SCT032 BKN060 OVC070 09/04 A3012 RMK AO2
KFSW 240615Z AUTO 16007KT 10SM BKN034 OVC060 09/03 A3012 RMK AO2
KFSW 240555Z AUTO 15007KT 10SM SCT060 BKN070 OVC080 09/03 A3013 RMK AO2
KFSW 240535Z AUTO 14007KT 10SM SCT042 SCT070 OVC090 09/03 A3013 RMK AO2
KFSW 240515Z AUTO 13007KT 10SM SCT048 BKN070 OVC090 09/03 A3013 RMK AO2
KFSW 240455Z AUTO 14006KT 10SM SCT070 OVC080 09/03 A3014 RMK AO2
KFSW 240435Z AUTO 14005KT 10SM -DZ OVC070 09/02 A3015 RMK AO2
KFSW 240415Z AUTO 13006KT 10SM -DZ BKN070 OVC090 09/02 A3015 RMK AO2
KFSW 240355Z AUTO 13006KT 10SM OVC080 09/02 A3015 RMK AO2
KFSW 240335Z AUTO 12006KT 10SM OVC080 09/02 A3015 RMK AO2
KFSW 240315Z AUTO 11005KT 10SM BKN080 BKN090 09/03 A3015 RMK AO2
KFSW 240255Z AUTO 00000KT 10SM SCT080 BKN085 09/02 A3015 RMK AO2
KFSW 240235Z AUTO 11006KT 10SM BKN080 BKN100 09/02 A3014 RMK AO2
KFSW 240215Z AUTO 11007KT 10SM BKN100 120 09/02 A3014 RMK AO2
KFSW 240155Z AUTO 12007KT 10SM BKN120 09/02 A3014 RMK AO2
KFSW 240135Z AUTO 13006KT 10SM SCT120 10/02 A3015 RMK AO2
KFSW 240115Z AUTO 14005KT 10SM SCT120 10/02 A3015 RMK AO2
KFSW 240055Z AUTO 15006KT 10SM SCT120 10/02 A3016 RMK AO2
KFSW 240035Z AUTO 15007KT 10SM SCT120 11/02 A3016 RMK AO2
KFSW 240015Z AUTO 14007KT 10SM CLR 11/02 A3016 RMK AO2
KFSW 232355Z AUTO 15009KT 10SM CLR 11/01 A3016 RMK AO2
KFSW 232335Z AUTO 14010G14KT 10SM CLR 12/02 A3016 RMK AO2
KFSW 232315Z AUTO 14008KT 10SM CLR 12/01 A3016 RMK AO2
KFSW 232255Z AUTO 14007KT 10SM SCT100 12/01 A3016 RMK AO2
KFSW 232235Z AUTO 14006KT 10SM BKN110 12/02 A3016 RMK AO2
KFSW 232215Z AUTO 14010KT 10SM BKN110 13/02 A3017 RMK AO2
KFSW 232155Z AUTO 14009G14KT 10SM BKN110 12/02 A3018 RMK AO2
KFSW 232135Z AUTO 14008KT 10SM BKN120 13/01 A3018 RMK AO2
KFSW 232115Z AUTO 14009KT 10SM SCT110 13/02 A3019 RMK AO2
KFSW 232055Z AUTO 14007KT 10SM CLR 12/02 A3019 RMK AO2
KFSW 232035Z AUTO 13008KT 10SM CLR 12/02 A3020 RMK AO2
KFSW 232015Z AUTO 14009KT 10SM CLR 12/02 A3021 RMK AO2
KFSW 231955Z AUTO 15008KT 10SM CLR 13/02 A3021 RMK AO2
KFSW 231935Z AUTO 13007KT 10SM CLR 12/02 A3022 RMK AO2
KFSW 231915Z AUTO 13007G14KT 10SM CLR 12/01 A3022 RMK AO2
KFSW 231855Z AUTO 14009KT 10SM CLR 12/02 A3023 RMK AO2
KFSW 231835Z AUTO 14008G14KT 10SM CLR 11/01 A3023 RMK AO2
KFSW 231815Z AUTO 15009G16KT 10SM CLR 12/02 A3023 RMK AO2
KFSW 231755Z AUTO 14008KT 10SM CLR 11/02 A3024 RMK AO2
KFSW 231735Z AUTO 15010G16KT 10SM CLR 12/02 A3025 RMK AO2
KFSW 231715Z AUTO 17011KT 10SM CLR 11/02 A3026 RMK AO2
KFSW 231655Z AUTO 18011KT 10SM CLR 11/02 A3027 RMK AO2
KFSW 231635Z AUTO 15008KT 10SM CLR 09/02 A3026 RMK AO2
KFSW 231615Z AUTO 15009KT 10SM CLR 09/02 A3027 RMK AO2
KFSW 231555Z AUTO 15010G15KT 7SM CLR 08/02 A3028 RMK AO2
KFSW 231535Z AUTO 16009KT 10SM CLR 07/01 A3028 RMK AO2
KFSW 231515Z AUTO 15008KT 10SM CLR 07/01 A3029 RMK AO2
KFSW 231455Z AUTO 14008KT 10SM CLR 06/01 A3029 RMK AO2
KFSW 231435Z AUTO 14007KT 10SM CLR 05/01 A3029 RMK AO2
KFSW 231415Z AUTO 12007KT 10SM CLR 04/01 A3029 RMK AO2
KFSW 231355Z AUTO 13004KT 10SM CLR 03/00 A3029 RMK AO2
KFSW 231335Z AUTO 15005KT 10SM CLR 03/M01 A3029 RMK AO2
KFSW 231315Z AUTO 13005KT 10SM CLR 02/M01 A3029 RMK AO2